Time;durP1;ratioP1;P1;durP2;ratioP2;P2;SDS_P1;SDS_P2;PMS_P1;PMS_P2;Temp;Humidity;BMP_temperature;BMP_pressure;BME280_temperature;BME280_humidity;BME280_pressure;Samples;Min_cycle;Max_cycle;Signal;HPM_P1;HPM_P2
2022/10/07 00:01:46;;;;;;;8.88;3.72;;;12.30;99.90;;;;;;4957110;28;20245;-79
2022/10/07 00:04:12;;;;;;;13.10;3.67;;;12.20;99.90;;;;;;4957320;28;20571;-80
2022/10/07 00:06:38;;;;;;;7.95;2.80;;;12.30;99.90;;;;;;4956974;28;20178;-80
2022/10/07 00:09:03;;;;;;;11.45;3.03;;;12.40;99.90;;;;;;4957348;28;20206;-79
2022/10/07 00:11:30;;;;;;;12.82;3.10;;;12.40;99.90;;;;;;4956137;28;20660;-79
2022/10/07 00:13:58;;;;;;;6.20;2.88;;;12.20;99.90;;;;;;4972679;28;20207;-80
2022/10/07 00:16:27;;;;;;;14.13;3.67;;;12.10;99.90;;;;;;4956197;28;20181;-79
2022/10/07 00:18:57;;;;;;;10.75;3.58;;;12.00;99.90;;;;;;4958218;28;20174;-79
2022/10/07 00:21:25;;;;;;;6.47;3.05;;;12.00;99.90;;;;;;4958656;28;20525;-79
2022/10/07 00:23:51;;;;;;;9.88;2.80;;;12.00;99.90;;;;;;4958174;29;20177;-81
2022/10/07 00:26:20;;;;;;;9.73;3.40;;;11.90;99.90;;;;;;4956132;28;20179;-80
2022/10/07 00:28:46;;;;;;;8.65;3.13;;;11.90;99.90;;;;;;4959061;28;20210;-80
2022/10/07 00:31:17;;;;;;;7.70;3.28;;;12.00;99.90;;;;;;4956804;28;20194;-80
2022/10/07 00:33:44;;;;;;;8.23;3.05;;;12.00;99.90;;;;;;4958080;28;20179;-80
2022/10/07 00:36:15;;;;;;;10.73;3.03;;;12.00;99.90;;;;;;4959885;28;20523;-80
2022/10/07 00:38:41;;;;;;;14.55;3.22;;;12.00;99.90;;;;;;4968357;28;20151;-79
2022/10/07 00:41:14;;;;;;;13.02;3.45;;;12.00;99.90;;;;;;4981458;28;20234;-79
2022/10/07 00:43:40;;;;;;;7.80;3.53;;;11.80;99.90;;;;;;4979948;28;20234;-80
2022/10/07 00:46:31;;;;;;;11.23;3.13;;;11.90;99.90;;;;;;4960019;28;20202;-80
2022/10/07 00:49:08;;;;;;;13.13;2.92;;;11.90;99.90;;;;;;4956967;28;20226;-80
2022/10/07 00:51:34;;;;;;;11.52;3.92;;;11.90;99.90;;;;;;4956955;28;20298;-80
2022/10/07 00:54:03;;;;;;;9.80;3.22;;;11.80;99.90;;;;;;4955969;28;20179;-80
2022/10/07 00:56:30;;;;;;;8.85;3.08;;;11.90;99.90;;;;;;4955964;28;20163;-80
2022/10/07 00:58:59;;;;;;;12.18;3.03;;;11.80;99.90;;;;;;4956019;28;20214;-80
2022/10/07 01:01:25;;;;;;;14.82;3.50;;;11.70;99.90;;;;;;4955972;28;20182;-80
2022/10/07 01:03:51;;;;;;;7.47;3.30;;;11.60;99.90;;;;;;4956342;28;20170;-80
2022/10/07 01:06:17;;;;;;;11.27;3.65;;;11.70;99.90;;;;;;4956294;28;20684;-80
2022/10/07 01:08:46;;;;;;;15.77;3.45;;;11.60;99.90;;;;;;4956206;28;20245;-79
2022/10/07 01:11:31;;;;;;;10.95;3.72;;;11.60;99.90;;;;;;4955891;28;20202;-80
2022/10/07 01:14:06;;;;;;;15.85;4.18;;;11.60;99.90;;;;;;4955947;28;20171;-80
2022/10/07 01:16:44;;;;;;;12.90;2.85;;;11.50;99.90;;;;;;4954417;28;20178;-80
2022/10/07 01:19:35;;;;;;;6.93;3.40;;;11.40;99.90;;;;;;4956029;28;20181;-80
2022/10/07 01:22:28;;;;;;;6.25;2.78;;;11.60;99.90;;;;;;4955759;28;20284;-80
2022/10/07 01:25:33;;;;;;;7.93;2.90;;;11.60;99.90;;;;;;4951022;28;20660;-80
2022/10/07 01:28:24;;;;;;;6.70;3.15;;;11.50;99.90;;;;;;4948587;28;20191;-80
2022/10/07 01:30:56;;;;;;;9.98;2.80;;;11.60;99.90;;;;;;4955719;28;20194;-80
2022/10/07 01:33:27;;;;;;;14.45;2.88;;;11.60;99.90;;;;;;4957123;28;20237;-80
2022/10/07 01:35:55;;;;;;;9.93;3.40;;;11.60;99.90;;;;;;4956019;28;20167;-81
2022/10/07 01:38:25;;;;;;;9.40;3.33;;;11.70;99.90;;;;;;4969223;28;20162;-79
2022/10/07 01:41:26;;;;;;;5.13;2.83;;;11.70;99.90;;;;;;4955386;28;20194;-80
2022/10/07 01:43:53;;;;;;;12.75;3.65;;;11.50;99.90;;;;;;4915122;29;20665;-80
2022/10/07 01:46:22;;;;;;;7.50;3.00;;;11.50;99.90;;;;;;4947657;28;20277;-81
2022/10/07 01:48:50;;;;;;;9.45;3.50;;;11.40;99.90;;;;;;4955271;28;20284;-80
2022/10/07 01:51:17;;;;;;;11.98;3.35;;;11.30;99.90;;;;;;4955152;28;20205;-80
2022/10/07 01:54:10;;;;;;;3.92;2.60;;;11.40;99.90;;;;;;4956103;28;20180;-82
2022/10/07 01:56:51;;;;;;;16.63;3.80;;;11.40;99.90;;;;;;4956424;28;20189;-86
2022/10/07 01:59:49;;;;;;;13.95;3.08;;;11.30;99.90;;;;;;4955616;28;20178;-79
2022/10/07 02:02:46;;;;;;;9.65;3.20;;;11.50;99.90;;;;;;4956162;28;20546;-80
2022/10/07 02:05:14;;;;;;;13.43;3.40;;;11.50;99.90;;;;;;4955450;28;20273;-79
2022/10/07 02:08:07;;;;;;;13.65;2.95;;;11.40;99.90;;;;;;4954199;28;20332;-79
2022/10/07 02:10:48;;;;;;;15.88;3.45;;;11.40;99.90;;;;;;4955542;28;20217;-79
2022/10/07 02:13:24;;;;;;;10.93;3.03;;;11.20;99.90;;;;;;4955688;28;20169;-80
2022/10/07 02:16:14;;;;;;;11.95;4.13;;;11.20;99.90;;;;;;4955382;28;20170;-80
2022/10/07 02:18:43;;;;;;;12.73;2.95;;;11.30;99.90;;;;;;4954803;28;20179;-79
2022/10/07 02:21:10;;;;;;;10.65;3.13;;;11.40;99.90;;;;;;4955205;28;20198;-79
2022/10/07 02:23:38;;;;;;;11.73;3.08;;;11.40;99.90;;;;;;4955364;28;20225;-80
2022/10/07 02:26:06;;;;;;;12.30;3.75;;;11.50;99.90;;;;;;4955511;28;20214;-79
2022/10/07 02:28:36;;;;;;;16.20;3.35;;;11.60;99.90;;;;;;4954637;28;20213;-79
2022/10/07 02:31:03;;;;;;;13.93;3.30;;;11.50;99.90;;;;;;4954705;28;20189;-79
2022/10/07 02:33:31;;;;;;;11.18;3.97;;;11.40;99.90;;;;;;4955123;28;20226;-80
2022/10/07 02:36:01;;;;;;;13.30;3.10;;;11.30;99.90;;;;;;4969985;28;20174;-79
2022/10/07 02:38:26;;;;;;;8.82;2.60;;;11.30;99.90;;;;;;4954907;28;20224;-79
2022/10/07 02:41:01;;;;;;;9.23;2.80;;;11.20;99.90;;;;;;4954677;28;20190;-80
2022/10/07 02:43:44;;;;;;;12.48;3.42;;;11.20;99.90;;;;;;4954854;28;20201;-80
2022/10/07 02:46:22;;;;;;;13.35;3.67;;;11.30;99.90;;;;;;4954978;28;20179;-80
2022/10/07 02:48:57;;;;;;;15.93;3.92;;;11.30;99.90;;;;;;4954151;28;20213;-83
2022/10/07 02:51:32;;;;;;;13.30;2.45;;;11.30;99.90;;;;;;4953965;28;20181;-82
2022/10/07 02:54:01;;;;;;;15.10;3.53;;;11.20;99.90;;;;;;4953127;28;20632;-82
2022/10/07 02:56:28;;;;;;;11.07;3.05;;;11.10;99.90;;;;;;4954555;28;20170;-81
2022/10/07 02:58:55;;;;;;;11.57;2.85;;;11.20;99.90;;;;;;4954248;28;20696;-81
2022/10/07 03:01:27;;;;;;;10.95;4.13;;;11.10;99.90;;;;;;4969105;28;20186;-81
2022/10/07 03:03:55;;;;;;;13.02;3.20;;;11.10;99.90;;;;;;4954432;28;20277;-81
2022/10/07 03:06:24;;;;;;;11.95;3.08;;;11.00;99.90;;;;;;4957257;28;20178;-80
2022/10/07 03:08:51;;;;;;;8.38;2.50;;;11.20;99.90;;;;;;4971912;28;20221;-80
2022/10/07 03:11:17;;;;;;;12.70;3.67;;;11.30;99.90;;;;;;4966181;28;20187;-80
2022/10/07 03:13:44;;;;;;;6.53;2.90;;;11.20;99.90;;;;;;4962149;28;20199;-80
2022/10/07 03:16:09;;;;;;;14.27;3.33;;;11.30;99.90;;;;;;4977571;28;20182;-80
2022/10/07 03:18:35;;;;;;;7.35;2.78;;;11.10;99.90;;;;;;4981256;28;20644;-81
2022/10/07 03:21:01;;;;;;;20.42;3.50;;;11.20;99.90;;;;;;4962238;28;20190;-79
2022/10/07 03:23:28;;;;;;;14.65;3.22;;;11.10;99.90;;;;;;4953415;28;20174;-81
2022/10/07 03:26:06;;;;;;;8.57;3.65;;;11.00;99.90;;;;;;4955008;28;20643;-79
2022/10/07 03:28:34;;;;;;;12.55;2.63;;;11.00;99.90;;;;;;4953226;28;20222;-80
2022/10/07 03:31:09;;;;;;;7.68;3.50;;;11.00;99.90;;;;;;4953059;28;20201;-80
2022/10/07 03:33:36;;;;;;;13.55;3.00;;;11.10;99.90;;;;;;4954093;28;20232;-79
2022/10/07 03:36:02;;;;;;;8.65;2.40;;;11.10;99.90;;;;;;4979887;28;20625;-79
2022/10/07 03:38:28;;;;;;;5.10;2.65;;;11.10;99.90;;;;;;4968545;28;20206;-81
2022/10/07 03:40:54;;;;;;;8.35;3.55;;;11.10;99.90;;;;;;4963153;28;20206;-82
2022/10/07 03:43:19;;;;;;;14.40;3.63;;;11.20;99.90;;;;;;4953831;28;20667;-81
2022/10/07 03:45:49;;;;;;;3.78;2.53;;;11.20;99.90;;;;;;4953625;28;20177;-82
2022/10/07 03:48:15;;;;;;;6.97;2.42;;;11.20;99.90;;;;;;4968703;28;20289;-82
2022/10/07 03:50:40;;;;;;;15.20;2.97;;;11.20;99.90;;;;;;4953806;28;20451;-81
2022/10/07 03:53:07;;;;;;;17.35;3.35;;;11.20;99.90;;;;;;4952712;28;20178;-80
2022/10/07 03:55:33;;;;;;;6.97;3.00;;;11.20;99.90;;;;;;4953904;28;20171;-81
2022/10/07 03:57:59;;;;;;;7.68;2.67;;;11.10;99.90;;;;;;4953925;28;20166;-82
2022/10/07 04:00:25;;;;;;;7.45;3.38;;;11.00;99.90;;;;;;4953068;28;20182;-80
2022/10/07 04:02:51;;;;;;;10.63;3.67;;;11.00;99.90;;;;;;4956912;28;20171;-80
2022/10/07 04:05:19;;;;;;;10.73;4.43;;;10.90;99.90;;;;;;4957287;28;20674;-80
2022/10/07 04:07:46;;;;;;;13.52;4.10;;;11.00;99.90;;;;;;4972118;28;20182;-81
2022/10/07 04:10:14;;;;;;;11.93;3.05;;;11.00;99.90;;;;;;4956894;28;20208;-79
2022/10/07 04:12:40;;;;;;;16.33;3.80;;;11.10;99.90;;;;;;4971673;28;20193;-81
2022/10/07 04:15:07;;;;;;;10.23;2.75;;;11.00;99.90;;;;;;4956922;28;20535;-80
2022/10/07 04:17:32;;;;;;;11.05;2.80;;;11.10;99.90;;;;;;4956994;28;20233;-80
2022/10/07 04:19:58;;;;;;;10.65;3.50;;;11.10;99.90;;;;;;4956980;28;20576;-80
2022/10/07 04:22:24;;;;;;;15.25;3.47;;;11.10;99.90;;;;;;4971659;28;20194;-81
2022/10/07 04:27:35;;;;;;;9.80;3.10;;;11.20;99.90;;;;;;4957275;28;20602;-81
2022/10/07 04:30:02;;;;;;;11.05;2.85;;;11.20;99.90;;;;;;4971781;28;20210;-79
2022/10/07 04:32:27;;;;;;;14.30;3.38;;;11.30;99.90;;;;;;4971626;28;20201;-79
2022/10/07 04:34:53;;;;;;;9.63;3.45;;;11.30;99.90;;;;;;4956940;28;20178;-80
2022/10/07 04:37:19;;;;;;;21.83;3.88;;;11.30;99.90;;;;;;4956876;28;20531;-80
2022/10/07 04:39:44;;;;;;;11.68;3.70;;;11.40;99.90;;;;;;4956484;29;20197;-79
2022/10/07 04:43:17;;;;;;;9.23;3.30;;;11.30;99.90;;;;;;4955187;28;20199;-79
2022/10/07 04:44:55;;;;;;;17.33;3.03;;;11.20;99.90;;;;;;4957370;29;20286;-80
2022/10/07 04:47:21;;;;;;;9.15;2.80;;;11.30;99.90;;;;;;4956840;28;20249;-81
2022/10/07 04:49:47;;;;;;;12.93;3.90;;;11.20;99.90;;;;;;4956080;29;20214;-82
2022/10/07 04:52:13;;;;;;;20.50;3.53;;;11.10;99.90;;;;;;4956233;28;20187;-81
2022/10/07 04:54:39;;;;;;;7.53;2.90;;;10.90;99.90;;;;;;4955685;28;20329;-81
2022/10/07 04:57:05;;;;;;;14.25;3.17;;;11.00;99.90;;;;;;4956656;28;20275;-79
2022/10/07 04:59:30;;;;;;;18.63;4.35;;;11.10;99.90;;;;;;4956551;29;20170;-80
2022/10/07 05:01:57;;;;;;;10.95;3.22;;;11.10;99.90;;;;;;4956670;28;20191;-80
2022/10/07 05:04:22;;;;;;;11.13;3.10;;;11.10;99.90;;;;;;4956761;28;20645;-80
2022/10/07 05:06:48;;;;;;;18.42;3.30;;;11.00;99.90;;;;;;4956585;28;20170;-79
2022/10/07 05:09:14;;;;;;;10.10;3.28;;;11.00;99.90;;;;;;4956283;29;20213;-80
2022/10/07 05:11:39;;;;;;;25.05;5.50;;;11.10;99.90;;;;;;4955972;28;20190;-80
2022/10/07 05:14:05;;;;;;;21.42;3.75;;;11.10;99.90;;;;;;4955546;28;20175;-79
2022/10/07 05:16:30;;;;;;;19.67;4.03;;;11.10;99.90;;;;;;4957080;29;20177;-79
2022/10/07 05:18:56;;;;;;;22.98;4.45;;;11.20;99.90;;;;;;4956554;28;20166;-80
2022/10/07 05:21:22;;;;;;;7.93;3.03;;;11.20;99.90;;;;;;4955889;28;20191;-79
2022/10/07 05:23:47;;;;;;;21.40;3.65;;;11.30;99.90;;;;;;4955748;28;20214;-79
2022/10/07 05:26:14;;;;;;;19.55;6.80;;;11.20;99.90;;;;;;4955498;28;20229;-80
2022/10/07 05:28:40;;;;;;;9.68;3.63;;;11.30;99.90;;;;;;4970641;28;20245;-81
2022/10/07 05:31:12;;;;;;;9.05;3.58;;;11.30;99.90;;;;;;4954438;28;20201;-80
2022/10/07 05:33:38;;;;;;;26.17;4.72;;;11.40;99.90;;;;;;4970841;28;20228;-80
2022/10/07 05:36:05;;;;;;;7.57;3.35;;;11.30;99.90;;;;;;4954390;28;20171;-80
2022/10/07 05:38:32;;;;;;;8.27;2.97;;;11.30;99.90;;;;;;4955668;28;20179;-81
2022/10/07 05:41:02;;;;;;;23.13;3.67;;;11.30;99.90;;;;;;4955176;28;20652;-80
2022/10/07 05:43:30;;;;;;;12.90;2.97;;;11.20;99.90;;;;;;4958708;28;20209;-80
2022/10/07 05:46:04;;;;;;;11.75;3.60;;;11.10;99.90;;;;;;4976800;28;20239;-80
2022/10/07 05:48:31;;;;;;;10.98;2.95;;;11.10;99.90;;;;;;4969046;28;20206;-80
2022/10/07 05:50:57;;;;;;;11.75;4.22;;;11.20;99.90;;;;;;4957700;28;20183;-80
2022/10/07 05:53:24;;;;;;;16.45;3.28;;;11.30;99.90;;;;;;4955611;28;20258;-79
2022/10/07 05:55:50;;;;;;;13.20;3.13;;;11.30;99.90;;;;;;4955226;28;20159;-80
2022/10/07 05:58:16;;;;;;;12.23;4.28;;;11.30;99.90;;;;;;4955419;28;20169;-81
2022/10/07 06:00:52;;;;;;;14.07;3.30;;;11.20;99.90;;;;;;4955138;28;20190;-80
2022/10/07 06:03:18;;;;;;;16.35;3.50;;;11.20;99.90;;;;;;4955419;28;20204;-79
2022/10/07 06:05:45;;;;;;;14.55;3.30;;;11.30;99.90;;;;;;4954556;28;20171;-84
2022/10/07 06:08:10;;;;;;;13.77;3.42;;;11.30;99.90;;;;;;4954409;29;20225;-79
2022/10/07 06:13:20;;;;;;;11.90;2.92;;;11.30;99.90;;;;;;4955855;28;20535;-81
2022/10/07 06:15:46;;;;;;;14.93;2.92;;;11.40;99.90;;;;;;4970458;28;20170;-80
2022/10/07 06:18:11;;;;;;;16.67;2.95;;;11.40;99.90;;;;;;4955010;28;20194;-81
2022/10/07 06:20:37;;;;;;;14.73;3.28;;;11.40;99.90;;;;;;4954503;28;20562;-79
2022/10/07 06:23:02;;;;;;;19.88;3.58;;;11.50;99.90;;;;;;4954240;28;20175;-79
2022/10/07 06:25:28;;;;;;;7.40;2.25;;;11.60;99.90;;;;;;4955372;29;20178;-79
2022/10/07 06:27:57;;;;;;;8.43;3.40;;;11.60;99.90;;;;;;4954920;28;20175;-82
2022/10/07 06:30:24;;;;;;;10.77;3.47;;;11.70;99.90;;;;;;4956216;28;20212;-83
2022/10/07 06:32:50;;;;;;;16.58;3.28;;;11.70;99.90;;;;;;4954993;28;20175;-82
2022/10/07 06:35:15;;;;;;;17.15;2.47;;;11.70;99.90;;;;;;4970089;28;20171;-81
2022/10/07 06:37:41;;;;;;;13.27;2.70;;;11.70;99.90;;;;;;4970784;28;20175;-81
2022/10/07 06:40:07;;;;;;;15.20;4.03;;;11.60;99.90;;;;;;4954074;29;20666;-82
2022/10/07 06:42:32;;;;;;;14.35;3.13;;;11.60;99.90;;;;;;4955087;28;20225;-80
2022/10/07 06:44:58;;;;;;;11.43;2.40;;;11.70;99.90;;;;;;4955685;28;20177;-81
2022/10/07 06:47:25;;;;;;;13.82;3.80;;;11.70;99.90;;;;;;4956533;29;20220;-82
2022/10/07 06:49:51;;;;;;;15.55;3.80;;;11.80;99.90;;;;;;4962186;28;20218;-80
2022/10/07 06:52:16;;;;;;;17.63;3.20;;;11.80;99.90;;;;;;4979930;28;20194;-81
2022/10/07 06:54:42;;;;;;;20.70;3.03;;;11.80;99.90;;;;;;4958168;29;20258;-81
2022/10/07 06:59:38;;;;;;;10.95;3.13;;;12.00;99.90;;;;;;4971577;28;20209;-83
2022/10/07 07:02:03;;;;;;;9.95;2.80;;;12.10;99.90;;;;;;4973647;28;20197;-85
2022/10/07 07:04:29;;;;;;;17.60;3.15;;;12.10;99.90;;;;;;4975153;28;20177;-92
2022/10/07 07:06:55;;;;;;;16.35;3.38;;;12.10;99.90;;;;;;4973873;28;20264;-91
2022/10/07 07:09:21;;;;;;;14.38;3.58;;;12.20;99.90;;;;;;4973856;28;20197;-92
2022/10/07 07:11:47;;;;;;;13.07;2.40;;;12.20;99.90;;;;;;4974738;28;20747;-93
2022/10/07 07:14:13;;;;;;;12.15;2.80;;;12.20;99.90;;;;;;4973624;28;20201;-82
2022/10/07 07:16:39;;;;;;;12.20;3.08;;;12.10;99.90;;;;;;4973034;28;20232;-89
2022/10/07 07:19:07;;;;;;;13.80;2.95;;;12.20;99.90;;;;;;4972928;28;20299;-92
2022/10/07 07:21:34;;;;;;;14.18;3.05;;;12.20;99.90;;;;;;4972892;28;20193;-88
2022/10/07 07:24:01;;;;;;;12.43;2.63;;;12.40;99.90;;;;;;4973208;28;20186;-93
2022/10/07 07:26:27;;;;;;;10.25;3.10;;;12.30;99.90;;;;;;4971080;28;20221;-83
2022/10/07 07:28:57;;;;;;;18.98;3.40;;;12.40;99.90;;;;;;4969847;28;20238;-90
2022/10/07 07:31:23;;;;;;;18.60;2.95;;;12.40;99.90;;;;;;4971027;28;20190;-93
2022/10/07 07:33:51;;;;;;;13.60;3.55;;;12.50;99.90;;;;;;4972660;28;20166;-93
2022/10/07 07:36:19;;;;;;;11.45;3.80;;;12.40;99.90;;;;;;4977302;28;20161;-93
2022/10/07 07:38:56;;;;;;;19.52;3.28;;;12.60;99.90;;;;;;4978251;28;20252;-92
2022/10/07 07:41:25;;;;;;;13.27;3.40;;;12.60;99.90;;;;;;4977658;28;20190;-94
2022/10/07 07:43:52;;;;;;;16.02;4.30;;;12.40;99.90;;;;;;4978180;28;20166;-94
2022/10/07 07:46:20;;;;;;;18.17;3.28;;;12.50;99.90;;;;;;4976781;28;20162;-81
2022/10/07 07:48:48;;;;;;;13.02;2.75;;;12.60;99.90;;;;;;4976820;28;20205;-88
2022/10/07 07:51:16;;;;;;;6.70;2.78;;;12.70;99.90;;;;;;4977851;28;20182;-89
2022/10/07 07:53:42;;;;;;;9.05;3.42;;;12.80;99.90;;;;;;4973789;28;20555;-84
2022/10/07 07:56:09;;;;;;;14.45;3.42;;;13.10;99.90;;;;;;4972436;28;20522;-94
2022/10/07 07:58:35;;;;;;;14.85;3.47;;;13.20;99.90;;;;;;4957238;28;20186;-93
2022/10/07 08:01:04;;;;;;;13.07;3.42;;;13.30;99.90;;;;;;4958006;29;20186;-92
2022/10/07 08:03:31;;;;;;;9.05;2.80;;;13.40;99.90;;;;;;4958571;28;20173;-94
2022/10/07 08:06:00;;;;;;;16.83;3.78;;;13.60;99.90;;;;;;4975381;28;20209;-84
2022/10/07 08:08:28;;;;;;;9.15;3.28;;;13.70;99.90;;;;;;4976119;28;20198;-81
2022/10/07 08:10:53;;;;;;;15.32;3.40;;;13.90;99.90;;;;;;4972244;28;20722;-87
2022/10/07 08:13:19;;;;;;;8.88;2.78;;;13.90;99.90;;;;;;4975732;28;20158;-94
2022/10/07 08:15:45;;;;;;;8.98;3.17;;;14.00;99.90;;;;;;4978234;28;20535;-86
2022/10/07 08:18:10;;;;;;;15.50;3.75;;;14.00;99.90;;;;;;4979582;28;20162;-87
2022/10/07 08:20:36;;;;;;;9.50;2.88;;;14.10;99.90;;;;;;4980307;28;20170;-86
2022/10/07 08:23:03;;;;;;;8.32;3.67;;;14.10;99.90;;;;;;4977554;28;20166;-88
2022/10/07 08:25:29;;;;;;;10.77;2.92;;;14.30;99.90;;;;;;4977809;28;20727;-94
2022/10/07 08:27:54;;;;;;;11.60;3.30;;;14.30;99.90;;;;;;4977130;28;20162;-91
2022/10/07 08:30:20;;;;;;;9.65;3.30;;;14.30;99.90;;;;;;4976423;28;20205;-89
2022/10/07 08:32:45;;;;;;;9.15;3.30;;;14.40;99.90;;;;;;4978577;28;20664;-93
2022/10/07 08:35:11;;;;;;;19.15;3.30;;;14.60;99.90;;;;;;4979078;28;20186;-93
2022/10/07 08:37:37;;;;;;;22.85;4.32;;;14.40;99.90;;;;;;4977921;28;20204;-95
2022/10/07 08:40:04;;;;;;;4.93;2.53;;;14.50;99.90;;;;;;4977956;28;20174;-92
2022/10/07 08:42:37;;;;;;;16.00;3.67;;;14.60;99.90;;;;;;4976051;28;20201;-83
2022/10/07 08:45:07;;;;;;;11.18;3.45;;;14.70;99.90;;;;;;4978488;28;20173;-83
2022/10/07 08:47:42;;;;;;;17.63;3.72;;;14.90;99.90;;;;;;4975933;28;20173;-80
2022/10/07 08:50:23;;;;;;;11.00;3.17;;;15.10;99.90;;;;;;4976371;28;20213;-80
2022/10/07 08:53:00;;;;;;;6.28;2.47;;;15.20;99.90;;;;;;4975593;28;20181;-81
2022/10/07 08:55:32;;;;;;;10.32;3.50;;;15.20;99.90;;;;;;4975852;28;20209;-80
2022/10/07 08:58:03;;;;;;;14.80;3.10;;;15.30;99.90;;;;;;4973849;28;20305;-81
2022/10/07 09:00:52;;;;;;;7.13;3.35;;;15.30;99.90;;;;;;4974402;28;20177;-81
2022/10/07 09:03:34;;;;;;;9.10;3.00;;;15.40;99.90;;;;;;4975636;28;20170;-83
2022/10/07 09:06:06;;;;;;;6.43;2.97;;;15.60;99.90;;;;;;4974296;28;20664;-84
2022/10/07 09:08:39;;;;;;;13.93;4.25;;;15.60;99.90;;;;;;4974008;28;20227;-83
2022/10/07 09:11:18;;;;;;;10.60;4.10;;;15.70;99.90;;;;;;4974677;28;20280;-83
2022/10/07 09:13:56;;;;;;;8.07;2.92;;;15.80;99.90;;;;;;4974860;28;20162;-83
2022/10/07 09:16:36;;;;;;;9.75;2.65;;;15.80;99.90;;;;;;4975544;28;20176;-87
2022/10/07 09:19:03;;;;;;;11.65;3.33;;;16.00;99.90;;;;;;4976340;28;20172;-91
2022/10/07 09:21:41;;;;;;;8.25;3.03;;;16.00;99.90;;;;;;4976347;28;20197;-91
2022/10/07 09:24:16;;;;;;;17.75;3.38;;;15.90;99.90;;;;;;4976591;28;20166;-80
2022/10/07 09:26:42;;;;;;;3.70;2.33;;;15.90;99.90;;;;;;4978189;28;20235;-88
2022/10/07 09:29:09;;;;;;;13.98;3.55;;;16.00;99.90;;;;;;4974823;28;20206;-92
2022/10/07 09:31:35;;;;;;;25.98;2.92;;;16.20;99.90;;;;;;4977927;28;20186;-83
2022/10/07 09:34:01;;;;;;;8.75;2.33;;;16.30;99.90;;;;;;4975782;28;20192;-94
2022/10/07 09:36:27;;;;;;;5.78;2.88;;;16.40;99.90;;;;;;4975293;28;20170;-80
2022/10/07 09:38:52;;;;;;;12.77;2.55;;;16.50;99.90;;;;;;4973547;28;20169;-80
2022/10/07 09:41:23;;;;;;;6.55;3.03;;;16.30;99.90;;;;;;4974786;28;20241;-80
2022/10/07 09:43:57;;;;;;;6.43;2.80;;;16.40;99.90;;;;;;4974239;28;20257;-84
2022/10/07 09:46:30;;;;;;;9.57;2.83;;;16.40;99.90;;;;;;4974126;28;20213;-89
2022/10/07 09:48:56;;;;;;;10.40;3.10;;;16.50;99.90;;;;;;4975455;28;20205;-86
2022/10/07 09:51:25;;;;;;;7.95;2.30;;;16.60;99.90;;;;;;4974591;28;20229;-90
2022/10/07 09:54:02;;;;;;;11.85;2.97;;;16.60;99.90;;;;;;4958168;29;20194;-92
2022/10/07 09:56:38;;;;;;;12.07;3.25;;;16.70;99.90;;;;;;4957020;29;20178;-91
2022/10/07 09:59:22;;;;;;;10.48;3.40;;;16.70;99.90;;;;;;4954475;28;20186;-88
2022/10/07 10:01:58;;;;;;;15.85;3.30;;;16.70;99.90;;;;;;4955343;28;20277;-84
2022/10/07 10:04:35;;;;;;;9.75;2.67;;;16.80;99.90;;;;;;4957745;28;20174;-81
2022/10/07 10:07:22;;;;;;;7.57;2.80;;;16.70;99.90;;;;;;4955821;29;20528;-82
2022/10/07 10:09:57;;;;;;;14.50;2.33;;;16.70;99.90;;;;;;4954611;28;20310;-83
2022/10/07 10:12:24;;;;;;;7.93;2.10;;;16.80;99.90;;;;;;4955584;28;20193;-90
2022/10/07 10:14:52;;;;;;;12.95;2.60;;;16.70;99.90;;;;;;4960603;28;20174;-92
2022/10/07 10:17:30;;;;;;;10.05;2.78;;;16.90;99.90;;;;;;4958102;29;20159;-89
2022/10/07 10:20:23;;;;;;;6.85;2.40;;;16.90;99.90;;;;;;4961386;29;20171;-89
2022/10/07 10:22:49;;;;;;;15.45;3.05;;;17.00;99.90;;;;;;4958691;28;20269;-89
2022/10/07 10:28:34;;;;;;;11.15;2.17;;;17.10;99.90;;;;;;4958868;29;20257;-90
2022/10/07 10:31:15;;;;;;;5.20;1.75;;;17.00;99.90;;;;;;4955730;29;20225;-88
2022/10/07 10:34:08;;;;;;;9.57;2.65;;;17.10;99.90;;;;;;4959142;29;20722;-80
2022/10/07 10:36:41;;;;;;;9.45;2.13;;;17.20;99.90;;;;;;4956915;28;20688;-79
2022/10/07 10:39:25;;;;;;;9.52;2.55;;;17.20;99.90;;;;;;4958616;28;20182;-80
2022/10/07 10:42:04;;;;;;;13.57;2.55;;;17.30;99.90;;;;;;4957949;28;20673;-79
2022/10/07 10:44:52;;;;;;;8.07;1.80;;;17.20;99.90;;;;;;4961480;28;20173;-87
2022/10/07 10:48:10;;;;;;;6.18;2.47;;;17.30;99.90;;;;;;4963777;28;20173;-92
2022/10/07 10:50:52;;;;;;;4.65;1.67;;;17.30;99.90;;;;;;4927684;29;20198;-92
2022/10/07 10:53:55;;;;;;;12.30;2.60;;;17.40;99.90;;;;;;4966139;28;20182;-92
2022/10/07 10:57:03;;;;;;;4.15;1.73;;;17.50;99.90;;;;;;4976370;29;20190;-90
2022/10/07 10:59:44;;;;;;;5.57;1.67;;;17.50;99.90;;;;;;4976721;28;20197;-88
2022/10/07 11:02:36;;;;;;;10.55;2.75;;;17.40;99.90;;;;;;4964385;29;20321;-93
2022/10/07 11:05:22;;;;;;;7.20;1.95;;;17.50;99.90;;;;;;4962520;29;20675;-89
2022/10/07 11:07:59;;;;;;;9.90;1.65;;;17.40;99.90;;;;;;4961859;29;20166;-93
2022/10/07 11:10:27;;;;;;;7.13;1.40;;;17.50;99.90;;;;;;4963035;28;20205;-92
2022/10/07 11:13:14;;;;;;;11.88;1.85;;;17.60;99.90;;;;;;4966553;29;20254;-92
2022/10/07 11:16:05;;;;;;;10.95;2.72;;;17.60;99.90;;;;;;4967902;28;20645;-92
2022/10/07 11:18:52;;;;;;;13.13;1.80;;;17.50;99.90;;;;;;4964529;29;20182;-91
2022/10/07 11:21:26;;;;;;;7.20;2.35;;;17.50;99.90;;;;;;4968792;29;20225;-93
2022/10/07 11:24:09;;;;;;;4.20;1.50;;;17.50;99.90;;;;;;4963129;29;20170;-93
2022/10/07 11:26:52;;;;;;;9.73;1.90;;;17.50;99.90;;;;;;4959621;28;20664;-94
2022/10/07 11:29:40;;;;;;;8.20;1.95;;;17.50;99.90;;;;;;4958812;29;20232;-89
2022/10/07 11:32:12;;;;;;;4.03;1.98;;;17.70;99.90;;;;;;4959305;28;20237;-91
2022/10/07 11:34:57;;;;;;;8.15;2.33;;;17.90;99.90;;;;;;4958143;29;20198;-81
2022/10/07 11:37:41;;;;;;;9.95;2.00;;;17.90;99.90;;;;;;4957890;29;20193;-79
2022/10/07 11:40:07;;;;;;;3.85;1.70;;;18.00;99.90;;;;;;4956422;28;20170;-80
2022/10/07 11:42:41;;;;;;;5.93;1.98;;;18.10;99.90;;;;;;4955676;28;20662;-85
2022/10/07 11:45:12;;;;;;;8.77;1.60;;;18.10;99.90;;;;;;4957338;29;20257;-90
2022/10/07 11:47:42;;;;;;;6.85;1.60;;;18.10;99.90;;;;;;4959427;29;20228;-90
2022/10/07 11:50:25;;;;;;;5.47;1.63;;;18.10;99.90;;;;;;4961042;29;20202;-91
2022/10/07 11:53:00;;;;;;;4.75;2.00;;;18.00;99.90;;;;;;4960057;28;20201;-85
2022/10/07 11:55:41;;;;;;;7.90;2.00;;;17.90;99.90;;;;;;4960292;28;20238;-91
2022/10/07 11:58:34;;;;;;;3.30;1.42;;;18.00;99.90;;;;;;4970513;28;20189;-91
2022/10/07 12:01:25;;;;;;;4.35;1.50;;;18.10;99.90;;;;;;4957816;28;20564;-92
2022/10/07 12:04:14;;;;;;;5.82;1.65;;;18.00;99.90;;;;;;4958593;29;20171;-92
2022/10/07 12:07:18;;;;;;;9.55;1.52;;;18.00;99.90;;;;;;4959574;29;20274;-92
2022/10/07 12:10:08;;;;;;;6.85;1.95;;;18.00;99.90;;;;;;4958553;29;20248;-92
2022/10/07 12:12:43;;;;;;;7.95;1.83;;;17.90;99.90;;;;;;4957729;29;20202;-92
2022/10/07 12:15:33;;;;;;;4.80;1.52;;;17.90;99.90;;;;;;4957165;29;20249;-79
2022/10/07 12:18:05;;;;;;;6.78;1.40;;;17.80;99.90;;;;;;4959252;28;20207;-83
2022/10/07 12:20:33;;;;;;;6.28;1.77;;;17.80;99.90;;;;;;4966845;28;20266;-87
2022/10/07 12:23:17;;;;;;;4.53;1.30;;;18.00;99.90;;;;;;4956785;28;20188;-82
2022/10/07 12:25:46;;;;;;;5.95;1.50;;;18.20;99.90;;;;;;4975129;28;20684;-82
2022/10/07 12:28:36;;;;;;;5.47;1.52;;;18.00;99.90;;;;;;4975543;28;20209;-90
2022/10/07 12:31:04;;;;;;;7.63;1.88;;;17.90;99.90;;;;;;4975400;28;20749;-90
2022/10/07 12:33:45;;;;;;;7.68;2.25;;;18.00;99.90;;;;;;4978577;28;20629;-87
2022/10/07 12:36:32;;;;;;;6.47;1.45;;;18.20;99.90;;;;;;4988568;28;20762;-92
2022/10/07 12:39:00;;;;;;;3.35;1.27;;;18.10;99.90;;;;;;4969660;28;20174;-88
2022/10/07 12:41:27;;;;;;;4.82;1.63;;;17.90;99.90;;;;;;4976856;28;20206;-87
2022/10/07 12:44:15;;;;;;;6.25;1.70;;;18.00;99.90;;;;;;4977147;28;20193;-88
2022/10/07 12:46:49;;;;;;;3.55;1.40;;;18.00;99.90;;;;;;4975511;28;20161;-90
2022/10/07 12:49:41;;;;;;;8.73;2.08;;;18.10;99.90;;;;;;4974434;28;20205;-80
2022/10/07 12:52:12;;;;;;;5.25;1.63;;;18.10;99.90;;;;;;4974740;28;20198;-81
2022/10/07 12:54:48;;;;;;;5.70;1.60;;;18.10;99.90;;;;;;4973568;28;20193;-81
2022/10/07 12:57:20;;;;;;;4.95;1.38;;;18.10;99.90;;;;;;4976002;28;20273;-83
2022/10/07 12:59:59;;;;;;;6.43;1.80;;;18.10;99.90;;;;;;4975040;28;20180;-91
2022/10/07 13:02:33;;;;;;;9.52;1.50;;;18.30;99.90;;;;;;4956129;29;20192;-82
2022/10/07 13:05:17;;;;;;;5.03;1.58;;;18.50;99.90;;;;;;4956673;29;20183;-84
2022/10/07 13:07:45;;;;;;;6.95;2.00;;;18.40;99.90;;;;;;4972088;28;20190;-81
2022/10/07 13:10:38;;;;;;;7.53;1.70;;;18.30;99.90;;;;;;4973638;28;20209;-81
2022/10/07 13:13:16;;;;;;;5.82;1.40;;;18.30;99.90;;;;;;4973803;28;20560;-82
2022/10/07 13:15:52;;;;;;;6.22;1.42;;;18.30;99.90;;;;;;4974334;28;20174;-87
2022/10/07 13:18:20;;;;;;;7.13;1.73;;;18.40;99.90;;;;;;4978971;28;20177;-90